createdAt,value
2019-03-03T13:14:23.578Z,97621.46
2019-03-03T13:17:11.891Z,97617.66
2019-03-03T13:19:58.839Z,97614.91
2019-03-03T13:22:45.770Z,97618.95
2019-03-03T13:25:21.435Z,97616.42
2019-03-03T13:28:15.827Z,97610.27
2019-03-03T13:31:10.447Z,97611.14
2019-03-03T13:33:57.511Z,97602.56
2019-03-03T13:36:45.904Z,97599.70
2019-03-03T13:39:40.319Z,97587.55
2019-03-03T13:42:27.407Z,97582.02
2019-03-03T13:44:56.935Z,97585.69
2019-03-03T13:47:26.483Z,97578.70
2019-03-03T13:49:55.863Z,97574.94
2019-03-03T13:52:25.543Z,97573.66
2019-03-03T13:54:54.970Z,97568.36
2019-03-03T13:57:24.413Z,97568.70
2019-03-03T13:59:53.852Z,97562.35
2019-03-03T14:02:23.253Z,97567.31
2019-03-03T14:04:52.776Z,97560.98
2019-03-03T14:07:22.336Z,97569.55
2019-03-03T14:09:51.760Z,97561.34
2019-03-03T14:12:21.141Z,97559.81
2019-03-03T14:14:50.543Z,97557.91
2019-03-03T14:17:19.952Z,97551.58
2019-03-03T14:19:49.707Z,97546.84
2019-03-03T14:22:19.443Z,97547.37
2019-03-03T14:24:48.804Z,97540.45
2019-03-03T14:27:18.547Z,97545.50
2019-03-03T14:29:48.032Z,97555.27
2019-03-03T14:32:17.696Z,97533.91
2019-03-03T14:34:47.265Z,97537.41
2019-03-03T14:37:16.656Z,97530.23
2019-03-03T14:39:46.075Z,97523.56
2019-03-03T14:42:15.486Z,97524.77
2019-03-03T14:44:44.902Z,97531.29
2019-03-03T14:47:14.296Z,97522.36
2019-03-03T14:49:43.736Z,97522.22
2019-03-03T14:52:13.124Z,97517.06
2019-03-03T14:54:42.534Z,97514.77
2019-03-03T14:57:12.064Z,97515.39
2019-03-03T14:59:41.442Z,97509.98
2019-03-03T15:02:10.862Z,97507.45
2019-03-03T15:04:40.649Z,97506.20
2019-03-03T15:07:10.207Z,97502.30
2019-03-03T15:09:39.593Z,97496.80
2019-03-03T15:12:09.346Z,97500.72
2019-03-03T15:14:38.899Z,97499.78
2019-03-03T15:17:08.301Z,97503.33
2019-03-03T15:19:37.677Z,97496.19
2019-03-03T15:22:07.603Z,97489.72
2019-03-03T15:24:37.150Z,97482.97
2019-03-03T15:27:06.644Z,97474.86
2019-03-03T15:29:36.044Z,97483.23
2019-03-03T15:32:05.778Z,97480.59
2019-03-03T15:34:35.272Z,97476.40
2019-03-03T15:37:06.398Z,97474.72
2019-03-03T15:39:35.819Z,97465.12
2019-03-03T15:42:05.503Z,97471.41
2019-03-03T15:44:34.932Z,97460.09
2019-03-03T15:47:04.577Z,97469.78
2019-03-03T15:49:33.981Z,97459.06
2019-03-03T15:52:03.564Z,97459.21
2019-03-03T15:54:32.940Z,97465.17
2019-03-03T15:57:02.377Z,97465.41
2019-03-03T15:59:31.869Z,97464.70
2019-03-03T16:02:02.909Z,97464.47
2019-03-03T16:04:32.318Z,97467.48
2019-03-03T16:07:01.754Z,97459.70
2019-03-03T16:09:31.155Z,97458.64
2019-03-03T16:12:00.589Z,97449.29
2019-03-03T16:14:30.022Z,97462.14
2019-03-03T16:16:59.408Z,97457.47
2019-03-03T16:19:28.847Z,97457.72
2019-03-03T16:21:58.367Z,97459.53
2019-03-03T16:24:27.843Z,97459.05
2019-03-03T16:26:57.436Z,97458.64
2019-03-03T16:29:26.840Z,97456.11
2019-03-03T16:31:56.240Z,97443.70
2019-03-03T16:34:25.751Z,97439.14
2019-03-03T16:36:55.264Z,97433.07
2019-03-03T16:39:24.684Z,97433.16
2019-03-03T16:41:54.303Z,97426.99
2019-03-03T16:44:23.719Z,97424.19
2019-03-03T16:46:53.090Z,97414.73
2019-03-03T16:49:22.509Z,97412.50
2019-03-03T16:51:51.898Z,97394.00
2019-03-03T16:54:21.556Z,97392.23
2019-03-03T16:56:50.991Z,97384.22
2019-03-03T16:59:20.470Z,97388.75
2019-03-03T17:01:49.882Z,97395.73
2019-03-03T17:04:19.249Z,97402.42
2019-03-03T17:06:48.815Z,97392.91
2019-03-03T17:09:18.277Z,97388.05
2019-03-03T17:11:47.771Z,97394.00
2019-03-03T17:14:17.321Z,97390.74
2019-03-03T17:16:46.831Z,97390.19
2019-03-03T17:19:16.233Z,97389.50
2019-03-03T17:21:45.615Z,97394.72
2019-03-03T17:24:15.214Z,97385.77
2019-03-03T17:26:44.633Z,97380.42
2019-03-03T17:29:14.003Z,97379.31
2019-03-03T17:31:43.423Z,97386.62
2019-03-03T17:34:13.416Z,97378.52
2019-03-03T17:36:42.888Z,97382.33
2019-03-03T17:39:12.564Z,97380.98
2019-03-03T17:41:42.224Z,97383.30
2019-03-03T17:44:11.763Z,97370.14
2019-03-03T17:46:41.235Z,97374.47
2019-03-03T17:49:10.682Z,97363.66
2019-03-03T17:51:40.064Z,97366.41
2019-03-03T17:54:09.681Z,97359.25
2019-03-03T17:56:39.151Z,97367.44
2019-03-03T17:59:08.660Z,97357.81
2019-03-03T18:01:38.153Z,97352.82
2019-03-03T18:04:07.673Z,97349.94
2019-03-03T18:06:39.026Z,97346.91
2019-03-03T18:09:09.453Z,97340.72
2019-03-03T18:11:38.843Z,97339.29
2019-03-03T18:14:08.238Z,97330.57
2019-03-03T18:16:37.843Z,97332.29
2019-03-03T18:19:07.259Z,97335.63
2019-03-03T18:21:36.648Z,97337.03
2019-03-03T18:24:06.188Z,97340.28
2019-03-03T18:26:35.683Z,97335.39
2019-03-03T18:29:05.220Z,97334.50
2019-03-03T18:31:34.720Z,97335.77
2019-03-03T18:34:04.146Z,97322.84
2019-03-03T18:36:33.751Z,97324.60
2019-03-03T18:39:04.299Z,97308.38
2019-03-03T18:41:33.899Z,97310.84
2019-03-03T18:44:03.637Z,97308.66
2019-03-03T18:46:33.281Z,97311.36
2019-03-03T18:49:02.677Z,97311.58
2019-03-03T18:51:32.100Z,97310.78
2019-03-03T18:54:01.682Z,97309.98
2019-03-03T18:56:31.120Z,97309.82
2019-03-03T18:59:00.638Z,97318.42
2019-03-03T19:01:30.083Z,97318.16
2019-03-03T19:03:59.651Z,97316.33
2019-03-03T19:06:29.054Z,97320.13
2019-03-03T19:08:58.572Z,97320.45
2019-03-03T19:11:28.091Z,97318.36
2019-03-03T19:13:57.511Z,97310.25
2019-03-03T19:16:27.104Z,97311.13
2019-03-03T19:18:56.628Z,97313.98
2019-03-03T19:21:26.222Z,97301.92
2019-03-03T19:23:55.724Z,97302.84
2019-03-03T19:26:25.146Z,97306.27
2019-03-03T19:28:54.590Z,97305.92
2019-03-03T19:31:24.051Z,97306.16
2019-03-03T19:33:55.208Z,97290.59
2019-03-03T19:36:24.631Z,97292.95
2019-03-03T19:38:54.000Z,97292.02
2019-03-03T19:41:23.420Z,97298.05
2019-03-03T19:43:52.900Z,97283.59
2019-03-03T19:46:22.420Z,97277.20
2019-03-03T19:48:51.957Z,97280.72
2019-03-03T19:51:21.456Z,97273.16
2019-03-03T19:53:50.863Z,97271.06
2019-03-03T19:56:20.577Z,97271.59
2019-03-03T19:58:49.999Z,97269.38
2019-03-03T20:01:19.383Z,97273.20
2019-03-03T20:03:48.806Z,97270.56
2019-03-03T20:06:18.235Z,97269.46
2019-03-03T20:08:47.641Z,97267.13
2019-03-03T20:11:17.042Z,97264.32
2019-03-03T20:13:46.465Z,97259.45
2019-03-03T20:16:15.840Z,97254.91
2019-03-03T20:18:45.294Z,97256.95
2019-03-03T20:21:14.902Z,97255.92
2019-03-03T20:23:44.305Z,97251.61
2019-03-03T20:26:13.908Z,97239.02
2019-03-03T20:28:43.297Z,97248.67
2019-03-03T20:31:12.721Z,97236.80
2019-03-03T20:33:42.428Z,97226.30
2019-03-03T20:36:11.865Z,97228.75
2019-03-03T20:38:41.510Z,97224.36
2019-03-03T20:41:10.899Z,97224.36
2019-03-03T20:43:40.304Z,97223.25
2019-03-03T20:46:09.698Z,97217.16
2019-03-03T20:48:39.106Z,97209.20
2019-03-03T20:51:08.579Z,97214.58
2019-03-03T20:53:38.135Z,97214.58
2019-03-03T20:56:07.619Z,97207.85
2019-03-03T20:58:37.012Z,97209.41
2019-03-03T21:01:06.724Z,97198.76
2019-03-03T21:03:36.589Z,97210.98
2019-03-03T21:06:06.236Z,97209.44
2019-03-03T21:08:36.021Z,97201.31
2019-03-03T21:11:05.591Z,97203.03
2019-03-03T21:13:35.055Z,97199.86
2019-03-03T21:16:04.559Z,97201.91
2019-03-03T21:18:33.986Z,97202.86
2019-03-03T21:21:03.379Z,97196.02
2019-03-03T21:23:32.806Z,97203.94
2019-03-03T21:26:02.209Z,97195.06
2019-03-03T21:28:31.722Z,97189.81
2019-03-03T21:31:01.139Z,97186.59
2019-03-03T21:33:30.600Z,97191.13
2019-03-03T21:36:00.022Z,97169.50
2019-03-03T21:38:29.414Z,97169.50
2019-03-03T21:40:58.878Z,97164.75
2019-03-03T21:43:28.427Z,97163.52
2019-03-03T21:45:58.040Z,97155.88
2019-03-03T21:48:27.463Z,97158.77
2019-03-03T21:50:56.981Z,97146.73
2019-03-03T21:53:26.352Z,97141.16
2019-03-03T21:55:55.738Z,97141.16
2019-03-03T21:58:25.178Z,97142.39
2019-03-03T22:00:54.577Z,97133.67
2019-03-03T22:03:23.983Z,97133.67
2019-03-03T22:05:53.362Z,97137.53
2019-03-03T22:08:22.789Z,97137.53
2019-03-03T22:10:52.200Z,97128.41
2019-03-03T22:13:21.631Z,97110.85
2019-03-03T22:15:51.072Z,97104.89
2019-03-03T22:18:20.501Z,97084.75
2019-03-03T22:20:49.891Z,97103.70
2019-03-03T22:23:19.343Z,97103.70
2019-03-03T22:25:48.757Z,97101.14
2019-03-03T22:28:18.210Z,97074.56
2019-03-03T22:30:47.714Z,97078.02
2019-03-03T22:33:17.103Z,97071.88
2019-03-03T22:35:46.920Z,97071.45
2019-03-03T22:38:16.364Z,97070.95
2019-03-03T22:40:45.739Z,97074.98
2019-03-03T22:43:15.267Z,97074.98
2019-03-03T22:45:44.652Z,97066.05
2019-03-03T22:48:14.159Z,97069.95
2019-03-03T22:50:43.546Z,97069.95
2019-03-03T22:53:12.962Z,97053.33
2019-03-03T22:55:42.433Z,97045.17
2019-03-03T22:58:11.823Z,97045.17
2019-03-03T23:00:55.785Z,97051.27
2019-03-03T23:03:47.487Z,97051.27
2019-03-03T23:06:39.604Z,97049.29
2019-03-03T23:09:55.332Z,97043.74
2019-03-03T23:12:41.483Z,97051.45
2019-03-03T23:15:53.443Z,97045.76
2019-03-03T23:18:47.102Z,97048.13
2019-03-03T23:22:03.452Z,97033.59
2019-03-03T23:25:22.701Z,97033.59
2019-03-03T23:27:52.101Z,96992.69
2019-03-03T23:30:21.569Z,96999.70
2019-03-03T23:32:50.969Z,96999.70
2019-03-03T23:35:20.371Z,97007.73
2019-03-03T23:37:49.748Z,97007.73
2019-03-03T23:40:19.259Z,97009.22
2019-03-03T23:42:48.642Z,97004.36
2019-03-03T23:45:18.093Z,97009.37
2019-03-03T23:47:47.481Z,97006.95
2019-03-03T23:50:16.905Z,97012.44
2019-03-03T23:52:46.303Z,97004.77
2019-03-03T23:55:15.713Z,96999.70
2019-03-03T23:57:45.114Z,96986.97
